sensor_id;sensor_type;location;lat;lon;timestamp;P1;durP1;ratioP1;P2;durP2;ratioP2
37647;SDS011;23490;53.656;10.076;2023-06-19T00:01:45;5.65;;;3.65;;
37647;SDS011;23490;53.656;10.076;2023-06-19T00:04:11;6.93;;;3.90;;
37647;SDS011;23490;53.656;10.076;2023-06-19T00:06:36;6.30;;;3.88;;
37647;SDS011;23490;53.656;10.076;2023-06-19T00:09:02;7.32;;;4.57;;
37647;SDS011;23490;53.656;10.076;2023-06-19T00:11:27;7.22;;;4.00;;
37647;SDS011;23490;53.656;10.076;2023-06-19T00:13:53;6.22;;;4.53;;
37647;SDS011;23490;53.656;10.076;2023-06-19T00:16:18;6.50;;;4.10;;
37647;SDS011;23490;53.656;10.076;2023-06-19T00:18:44;5.57;;;3.85;;
37647;SDS011;23490;53.656;10.076;2023-06-19T00:21:12;6.95;;;4.05;;
37647;SDS011;23490;53.656;10.076;2023-06-19T00:23:38;7.47;;;4.32;;
37647;SDS011;23490;53.656;10.076;2023-06-19T00:26:03;6.85;;;4.35;;
37647;SDS011;23490;53.656;10.076;2023-06-19T00:28:29;6.20;;;3.40;;
37647;SDS011;23490;53.656;10.076;2023-06-19T00:30:55;6.03;;;3.65;;
37647;SDS011;23490;53.656;10.076;2023-06-19T00:33:21;6.88;;;3.78;;
37647;SDS011;23490;53.656;10.076;2023-06-19T00:35:47;9.00;;;4.38;;
37647;SDS011;23490;53.656;10.076;2023-06-19T00:38:14;6.35;;;3.88;;
37647;SDS011;23490;53.656;10.076;2023-06-19T00:40:40;6.13;;;3.97;;
37647;SDS011;23490;53.656;10.076;2023-06-19T00:43:05;7.22;;;3.60;;
37647;SDS011;23490;53.656;10.076;2023-06-19T00:45:31;6.60;;;3.83;;
37647;SDS011;23490;53.656;10.076;2023-06-19T00:47:56;5.78;;;3.90;;
37647;SDS011;23490;53.656;10.076;2023-06-19T00:50:23;7.22;;;4.13;;
37647;SDS011;23490;53.656;10.076;2023-06-19T00:52:49;6.47;;;4.22;;
37647;SDS011;23490;53.656;10.076;2023-06-19T00:55:15;7.50;;;4.10;;
37647;SDS011;23490;53.656;10.076;2023-06-19T00:57:41;5.43;;;3.70;;
37647;SDS011;23490;53.656;10.076;2023-06-19T01:00:07;5.63;;;4.10;;
37647;SDS011;23490;53.656;10.076;2023-06-19T01:02:33;7.00;;;4.40;;
37647;SDS011;23490;53.656;10.076;2023-06-19T01:04:59;6.05;;;4.03;;
37647;SDS011;23490;53.656;10.076;2023-06-19T01:07:40;7.00;;;4.20;;
37647;SDS011;23490;53.656;10.076;2023-06-19T01:10:21;7.50;;;3.95;;
37647;SDS011;23490;53.656;10.076;2023-06-19T01:12:56;5.45;;;3.63;;
37647;SDS011;23490;53.656;10.076;2023-06-19T01:15:25;6.07;;;4.22;;
37647;SDS011;23490;53.656;10.076;2023-06-19T01:17:51;5.95;;;3.90;;
37647;SDS011;23490;53.656;10.076;2023-06-19T01:20:17;6.63;;;4.78;;
37647;SDS011;23490;53.656;10.076;2023-06-19T01:22:43;5.68;;;3.88;;
37647;SDS011;23490;53.656;10.076;2023-06-19T01:25:11;5.90;;;3.72;;
37647;SDS011;23490;53.656;10.076;2023-06-19T01:27:39;6.75;;;3.97;;
37647;SDS011;23490;53.656;10.076;2023-06-19T01:30:06;6.50;;;4.20;;
37647;SDS011;23490;53.656;10.076;2023-06-19T01:32:49;7.30;;;4.63;;
37647;SDS011;23490;53.656;10.076;2023-06-19T01:35:19;7.10;;;3.88;;
37647;SDS011;23490;53.656;10.076;2023-06-19T01:37:49;6.70;;;4.35;;
37647;SDS011;23490;53.656;10.076;2023-06-19T01:40:16;5.28;;;3.80;;
37647;SDS011;23490;53.656;10.076;2023-06-19T01:42:46;6.63;;;4.30;;
37647;SDS011;23490;53.656;10.076;2023-06-19T01:45:11;5.63;;;4.00;;
37647;SDS011;23490;53.656;10.076;2023-06-19T01:47:37;8.93;;;4.28;;
37647;SDS011;23490;53.656;10.076;2023-06-19T01:50:02;7.13;;;4.47;;
37647;SDS011;23490;53.656;10.076;2023-06-19T01:52:29;5.80;;;3.90;;
37647;SDS011;23490;53.656;10.076;2023-06-19T01:54:54;6.70;;;4.32;;
37647;SDS011;23490;53.656;10.076;2023-06-19T01:57:20;6.53;;;3.90;;
37647;SDS011;23490;53.656;10.076;2023-06-19T01:59:45;9.05;;;4.53;;
37647;SDS011;23490;53.656;10.076;2023-06-19T02:02:10;5.88;;;4.18;;
37647;SDS011;23490;53.656;10.076;2023-06-19T02:04:36;8.35;;;4.30;;
37647;SDS011;23490;53.656;10.076;2023-06-19T02:07:02;6.65;;;4.72;;
37647;SDS011;23490;53.656;10.076;2023-06-19T02:09:27;7.45;;;3.88;;
37647;SDS011;23490;53.656;10.076;2023-06-19T02:11:52;6.07;;;4.28;;
37647;SDS011;23490;53.656;10.076;2023-06-19T02:14:18;11.70;;;4.60;;
37647;SDS011;23490;53.656;10.076;2023-06-19T02:16:43;7.47;;;4.57;;
37647;SDS011;23490;53.656;10.076;2023-06-19T02:19:12;7.18;;;4.30;;
37647;SDS011;23490;53.656;10.076;2023-06-19T02:21:37;10.07;;;4.95;;
37647;SDS011;23490;53.656;10.076;2023-06-19T02:24:04;7.82;;;4.38;;
37647;SDS011;23490;53.656;10.076;2023-06-19T02:26:29;6.18;;;4.40;;
37647;SDS011;23490;53.656;10.076;2023-06-19T02:28:55;9.02;;;4.53;;
37647;SDS011;23490;53.656;10.076;2023-06-19T02:31:21;7.13;;;4.28;;
37647;SDS011;23490;53.656;10.076;2023-06-19T02:33:47;7.22;;;4.95;;
37647;SDS011;23490;53.656;10.076;2023-06-19T02:36:13;6.25;;;4.07;;
37647;SDS011;23490;53.656;10.076;2023-06-19T02:38:38;6.80;;;4.50;;
37647;SDS011;23490;53.656;10.076;2023-06-19T02:41:03;8.10;;;4.43;;
37647;SDS011;23490;53.656;10.076;2023-06-19T02:43:29;6.43;;;4.80;;
37647;SDS011;23490;53.656;10.076;2023-06-19T02:45:55;6.88;;;4.68;;
37647;SDS011;23490;53.656;10.076;2023-06-19T02:48:20;6.07;;;4.40;;
37647;SDS011;23490;53.656;10.076;2023-06-19T02:50:47;6.93;;;4.75;;
37647;SDS011;23490;53.656;10.076;2023-06-19T02:53:13;6.82;;;4.35;;
37647;SDS011;23490;53.656;10.076;2023-06-19T02:55:38;8.27;;;4.45;;
37647;SDS011;23490;53.656;10.076;2023-06-19T02:58:03;8.27;;;4.72;;
37647;SDS011;23490;53.656;10.076;2023-06-19T03:00:28;7.60;;;4.43;;
37647;SDS011;23490;53.656;10.076;2023-06-19T03:02:54;6.47;;;4.60;;
37647;SDS011;23490;53.656;10.076;2023-06-19T03:05:19;8.98;;;4.55;;
37647;SDS011;23490;53.656;10.076;2023-06-19T03:07:45;6.95;;;4.50;;
37647;SDS011;23490;53.656;10.076;2023-06-19T03:10:10;6.82;;;4.10;;
37647;SDS011;23490;53.656;10.076;2023-06-19T03:12:35;7.00;;;4.78;;
37647;SDS011;23490;53.656;10.076;2023-06-19T03:15:01;6.68;;;4.85;;
37647;SDS011;23490;53.656;10.076;2023-06-19T03:17:26;7.40;;;4.60;;
37647;SDS011;23490;53.656;10.076;2023-06-19T03:19:51;6.60;;;4.35;;
37647;SDS011;23490;53.656;10.076;2023-06-19T03:22:17;5.78;;;4.13;;
37647;SDS011;23490;53.656;10.076;2023-06-19T03:24:44;7.15;;;4.93;;
37647;SDS011;23490;53.656;10.076;2023-06-19T03:27:09;6.85;;;4.35;;
37647;SDS011;23490;53.656;10.076;2023-06-19T03:29:35;5.47;;;4.22;;
37647;SDS011;23490;53.656;10.076;2023-06-19T03:32:00;7.20;;;4.95;;
37647;SDS011;23490;53.656;10.076;2023-06-19T03:34:25;8.68;;;4.18;;
37647;SDS011;23490;53.656;10.076;2023-06-19T03:36:51;8.20;;;5.07;;
37647;SDS011;23490;53.656;10.076;2023-06-19T03:39:16;9.52;;;4.95;;
37647;SDS011;23490;53.656;10.076;2023-06-19T03:41:41;7.95;;;4.85;;
37647;SDS011;23490;53.656;10.076;2023-06-19T03:44:07;6.55;;;4.68;;
37647;SDS011;23490;53.656;10.076;2023-06-19T03:46:32;9.00;;;4.68;;
37647;SDS011;23490;53.656;10.076;2023-06-19T03:48:57;6.68;;;4.43;;
37647;SDS011;23490;53.656;10.076;2023-06-19T03:51:23;7.57;;;4.90;;
37647;SDS011;23490;53.656;10.076;2023-06-19T03:53:48;6.72;;;4.65;;
37647;SDS011;23490;53.656;10.076;2023-06-19T03:56:14;6.85;;;4.82;;
37647;SDS011;23490;53.656;10.076;2023-06-19T03:58:39;6.35;;;5.05;;
37647;SDS011;23490;53.656;10.076;2023-06-19T04:01:05;7.10;;;4.70;;
37647;SDS011;23490;53.656;10.076;2023-06-19T04:03:30;8.25;;;5.22;;
37647;SDS011;23490;53.656;10.076;2023-06-19T04:05:56;8.05;;;4.90;;
37647;SDS011;23490;53.656;10.076;2023-06-19T04:08:21;7.70;;;5.05;;
37647;SDS011;23490;53.656;10.076;2023-06-19T04:10:46;6.80;;;4.68;;
37647;SDS011;23490;53.656;10.076;2023-06-19T04:13:12;6.75;;;5.05;;
37647;SDS011;23490;53.656;10.076;2023-06-19T04:15:38;7.13;;;5.20;;
37647;SDS011;23490;53.656;10.076;2023-06-19T04:18:03;7.10;;;5.40;;
37647;SDS011;23490;53.656;10.076;2023-06-19T04:20:28;7.68;;;5.78;;
37647;SDS011;23490;53.656;10.076;2023-06-19T04:22:54;9.23;;;5.75;;
37647;SDS011;23490;53.656;10.076;2023-06-19T04:25:19;6.90;;;5.15;;
37647;SDS011;23490;53.656;10.076;2023-06-19T04:27:45;10.02;;;5.70;;
37647;SDS011;23490;53.656;10.076;2023-06-19T04:30:10;6.95;;;5.22;;
37647;SDS011;23490;53.656;10.076;2023-06-19T04:32:36;6.78;;;4.70;;
37647;SDS011;23490;53.656;10.076;2023-06-19T04:35:06;7.15;;;5.03;;
37647;SDS011;23490;53.656;10.076;2023-06-19T04:37:35;8.70;;;5.47;;
37647;SDS011;23490;53.656;10.076;2023-06-19T04:40:00;9.27;;;5.57;;
37647;SDS011;23490;53.656;10.076;2023-06-19T04:42:26;8.73;;;5.63;;
37647;SDS011;23490;53.656;10.076;2023-06-19T04:44:52;7.20;;;5.28;;
37647;SDS011;23490;53.656;10.076;2023-06-19T04:47:19;9.25;;;5.50;;
37647;SDS011;23490;53.656;10.076;2023-06-19T04:49:45;7.97;;;5.65;;
37647;SDS011;23490;53.656;10.076;2023-06-19T04:52:11;7.35;;;5.55;;
37647;SDS011;23490;53.656;10.076;2023-06-19T04:54:36;6.55;;;5.10;;
37647;SDS011;23490;53.656;10.076;2023-06-19T04:57:01;8.68;;;5.93;;
37647;SDS011;23490;53.656;10.076;2023-06-19T04:59:27;7.40;;;5.30;;
37647;SDS011;23490;53.656;10.076;2023-06-19T05:01:53;6.88;;;5.18;;
37647;SDS011;23490;53.656;10.076;2023-06-19T05:04:19;8.18;;;5.65;;
37647;SDS011;23490;53.656;10.076;2023-06-19T05:06:45;7.90;;;6.00;;
37647;SDS011;23490;53.656;10.076;2023-06-19T05:09:11;7.90;;;5.97;;
37647;SDS011;23490;53.656;10.076;2023-06-19T05:11:36;7.80;;;5.55;;
37647;SDS011;23490;53.656;10.076;2023-06-19T05:14:02;9.45;;;5.50;;
37647;SDS011;23490;53.656;10.076;2023-06-19T05:16:28;8.52;;;5.60;;
37647;SDS011;23490;53.656;10.076;2023-06-19T05:18:53;8.30;;;6.10;;
37647;SDS011;23490;53.656;10.076;2023-06-19T05:21:19;9.63;;;6.00;;
37647;SDS011;23490;53.656;10.076;2023-06-19T05:23:45;9.18;;;6.25;;
37647;SDS011;23490;53.656;10.076;2023-06-19T05:28:40;8.18;;;5.20;;
37647;SDS011;23490;53.656;10.076;2023-06-19T05:31:05;8.20;;;5.90;;
37647;SDS011;23490;53.656;10.076;2023-06-19T05:33:30;7.78;;;5.57;;
37647;SDS011;23490;53.656;10.076;2023-06-19T05:35:56;8.05;;;6.07;;
37647;SDS011;23490;53.656;10.076;2023-06-19T05:38:21;10.50;;;6.50;;
37647;SDS011;23490;53.656;10.076;2023-06-19T05:40:50;7.43;;;5.53;;
37647;SDS011;23490;53.656;10.076;2023-06-19T05:43:15;7.40;;;6.10;;
37647;SDS011;23490;53.656;10.076;2023-06-19T05:45:41;7.95;;;5.88;;
37647;SDS011;23490;53.656;10.076;2023-06-19T05:48:06;10.32;;;5.65;;
37647;SDS011;23490;53.656;10.076;2023-06-19T05:50:31;8.50;;;5.68;;
37647;SDS011;23490;53.656;10.076;2023-06-19T05:52:57;9.68;;;5.85;;
37647;SDS011;23490;53.656;10.076;2023-06-19T05:55:22;7.72;;;5.72;;
37647;SDS011;23490;53.656;10.076;2023-06-19T05:57:50;7.57;;;5.90;;
37647;SDS011;23490;53.656;10.076;2023-06-19T06:00:15;9.93;;;6.05;;
37647;SDS011;23490;53.656;10.076;2023-06-19T06:02:41;8.35;;;5.80;;
37647;SDS011;23490;53.656;10.076;2023-06-19T06:05:07;9.77;;;5.60;;
37647;SDS011;23490;53.656;10.076;2023-06-19T06:07:34;7.32;;;5.57;;
37647;SDS011;23490;53.656;10.076;2023-06-19T06:09:59;7.35;;;5.78;;
37647;SDS011;23490;53.656;10.076;2023-06-19T06:12:25;8.40;;;6.15;;
37647;SDS011;23490;53.656;10.076;2023-06-19T06:14:50;10.10;;;6.40;;
37647;SDS011;23490;53.656;10.076;2023-06-19T06:17:15;11.52;;;5.78;;
37647;SDS011;23490;53.656;10.076;2023-06-19T06:19:41;8.43;;;6.47;;
37647;SDS011;23490;53.656;10.076;2023-06-19T06:22:06;10.75;;;6.22;;
37647;SDS011;23490;53.656;10.076;2023-06-19T06:24:32;12.07;;;6.32;;
37647;SDS011;23490;53.656;10.076;2023-06-19T06:26:57;9.25;;;6.50;;
37647;SDS011;23490;53.656;10.076;2023-06-19T06:29:24;7.93;;;6.03;;
37647;SDS011;23490;53.656;10.076;2023-06-19T06:31:49;9.07;;;5.93;;
37647;SDS011;23490;53.656;10.076;2023-06-19T06:34:17;10.23;;;6.30;;
37647;SDS011;23490;53.656;10.076;2023-06-19T06:36:43;10.10;;;6.65;;
37647;SDS011;23490;53.656;10.076;2023-06-19T06:39:08;11.32;;;6.88;;
37647;SDS011;23490;53.656;10.076;2023-06-19T06:41:33;8.32;;;6.70;;
37647;SDS011;23490;53.656;10.076;2023-06-19T06:43:59;9.43;;;6.40;;
37647;SDS011;23490;53.656;10.076;2023-06-19T06:46:25;8.65;;;6.30;;
37647;SDS011;23490;53.656;10.076;2023-06-19T06:48:51;10.25;;;6.97;;
37647;SDS011;23490;53.656;10.076;2023-06-19T06:51:16;10.63;;;6.65;;
37647;SDS011;23490;53.656;10.076;2023-06-19T06:53:41;8.70;;;6.18;;
37647;SDS011;23490;53.656;10.076;2023-06-19T06:56:06;9.20;;;6.47;;
37647;SDS011;23490;53.656;10.076;2023-06-19T06:58:32;10.85;;;6.60;;
37647;SDS011;23490;53.656;10.076;2023-06-19T07:00:57;9.27;;;7.10;;
37647;SDS011;23490;53.656;10.076;2023-06-19T07:03:22;10.30;;;6.63;;
37647;SDS011;23490;53.656;10.076;2023-06-19T07:05:48;11.68;;;7.28;;
37647;SDS011;23490;53.656;10.076;2023-06-19T07:08:13;11.32;;;7.03;;
37647;SDS011;23490;53.656;10.076;2023-06-19T07:10:40;11.40;;;7.07;;
37647;SDS011;23490;53.656;10.076;2023-06-19T07:13:06;8.77;;;6.65;;
37647;SDS011;23490;53.656;10.076;2023-06-19T07:15:31;9.57;;;6.93;;
37647;SDS011;23490;53.656;10.076;2023-06-19T07:17:57;9.25;;;6.45;;
37647;SDS011;23490;53.656;10.076;2023-06-19T07:20:22;9.80;;;6.95;;
37647;SDS011;23490;53.656;10.076;2023-06-19T07:22:49;8.40;;;6.63;;
37647;SDS011;23490;53.656;10.076;2023-06-19T07:25:16;10.93;;;6.65;;
37647;SDS011;23490;53.656;10.076;2023-06-19T07:27:42;10.50;;;7.82;;
37647;SDS011;23490;53.656;10.076;2023-06-19T07:30:07;10.38;;;7.47;;
37647;SDS011;23490;53.656;10.076;2023-06-19T07:32:33;9.48;;;7.38;;
37647;SDS011;23490;53.656;10.076;2023-06-19T07:34:59;11.18;;;7.00;;
37647;SDS011;23490;53.656;10.076;2023-06-19T07:37:24;8.48;;;6.63;;
37647;SDS011;23490;53.656;10.076;2023-06-19T07:39:51;9.13;;;7.20;;
37647;SDS011;23490;53.656;10.076;2023-06-19T07:42:17;11.90;;;7.18;;
37647;SDS011;23490;53.656;10.076;2023-06-19T07:44:44;8.95;;;6.65;;
37647;SDS011;23490;53.656;10.076;2023-06-19T07:47:10;10.27;;;6.95;;
37647;SDS011;23490;53.656;10.076;2023-06-19T07:49:35;8.68;;;6.90;;
37647;SDS011;23490;53.656;10.076;2023-06-19T07:52:01;9.38;;;7.25;;
37647;SDS011;23490;53.656;10.076;2023-06-19T07:54:28;9.43;;;6.95;;
37647;SDS011;23490;53.656;10.076;2023-06-19T07:56:53;10.38;;;7.43;;
37647;SDS011;23490;53.656;10.076;2023-06-19T07:59:18;8.27;;;7.07;;
37647;SDS011;23490;53.656;10.076;2023-06-19T08:01:44;9.02;;;7.32;;
37647;SDS011;23490;53.656;10.076;2023-06-19T08:04:10;8.75;;;6.65;;
37647;SDS011;23490;53.656;10.076;2023-06-19T08:06:35;8.73;;;6.32;;
37647;SDS011;23490;53.656;10.076;2023-06-19T08:09:01;9.65;;;7.50;;
37647;SDS011;23490;53.656;10.076;2023-06-19T08:11:27;10.57;;;7.35;;
37647;SDS011;23490;53.656;10.076;2023-06-19T08:13:52;11.40;;;8.45;;
37647;SDS011;23490;53.656;10.076;2023-06-19T08:16:17;9.45;;;7.25;;
37647;SDS011;23490;53.656;10.076;2023-06-19T08:18:44;10.23;;;7.50;;
37647;SDS011;23490;53.656;10.076;2023-06-19T08:21:10;12.50;;;7.55;;
37647;SDS011;23490;53.656;10.076;2023-06-19T08:23:35;13.52;;;8.07;;
37647;SDS011;23490;53.656;10.076;2023-06-19T08:26:00;8.77;;;7.13;;
37647;SDS011;23490;53.656;10.076;2023-06-19T08:28:27;12.15;;;7.32;;
37647;SDS011;23490;53.656;10.076;2023-06-19T08:30:52;9.32;;;7.53;;
37647;SDS011;23490;53.656;10.076;2023-06-19T08:33:17;10.23;;;7.63;;
37647;SDS011;23490;53.656;10.076;2023-06-19T08:35:42;9.38;;;7.30;;
37647;SDS011;23490;53.656;10.076;2023-06-19T08:38:09;9.70;;;7.50;;
37647;SDS011;23490;53.656;10.076;2023-06-19T08:40:34;8.75;;;7.28;;
37647;SDS011;23490;53.656;10.076;2023-06-19T08:43:00;8.82;;;7.65;;
37647;SDS011;23490;53.656;10.076;2023-06-19T08:45:28;10.90;;;7.30;;
37647;SDS011;23490;53.656;10.076;2023-06-19T08:48:00;10.63;;;7.55;;
37647;SDS011;23490;53.656;10.076;2023-06-19T08:50:28;9.48;;;7.43;;
37647;SDS011;23490;53.656;10.076;2023-06-19T08:52:57;10.23;;;7.57;;
37647;SDS011;23490;53.656;10.076;2023-06-19T08:55:23;8.57;;;6.97;;
37647;SDS011;23490;53.656;10.076;2023-06-19T08:57:49;10.65;;;7.82;;
37647;SDS011;23490;53.656;10.076;2023-06-19T09:00:28;10.15;;;7.25;;
37647;SDS011;23490;53.656;10.076;2023-06-19T09:03:01;8.75;;;6.95;;
37647;SDS011;23490;53.656;10.076;2023-06-19T09:05:27;9.50;;;7.63;;
37647;SDS011;23490;53.656;10.076;2023-06-19T09:07:54;9.13;;;7.30;;
37647;SDS011;23490;53.656;10.076;2023-06-19T09:10:21;10.18;;;7.40;;
37647;SDS011;23490;53.656;10.076;2023-06-19T09:12:58;8.68;;;7.18;;
37647;SDS011;23490;53.656;10.076;2023-06-19T09:15:26;10.52;;;8.05;;
37647;SDS011;23490;53.656;10.076;2023-06-19T09:18:01;7.60;;;6.75;;
37647;SDS011;23490;53.656;10.076;2023-06-19T09:20:27;9.15;;;6.75;;
37647;SDS011;23490;53.656;10.076;2023-06-19T09:22:56;7.88;;;6.85;;
37647;SDS011;23490;53.656;10.076;2023-06-19T09:25:22;10.80;;;7.10;;
37647;SDS011;23490;53.656;10.076;2023-06-19T09:27:55;8.77;;;6.55;;
37647;SDS011;23490;53.656;10.076;2023-06-19T09:30:20;9.63;;;7.50;;
37647;SDS011;23490;53.656;10.076;2023-06-19T09:32:46;9.43;;;6.88;;
37647;SDS011;23490;53.656;10.076;2023-06-19T09:35:12;9.73;;;6.63;;
37647;SDS011;23490;53.656;10.076;2023-06-19T09:37:38;9.82;;;7.05;;
37647;SDS011;23490;53.656;10.076;2023-06-19T09:40:08;9.82;;;6.93;;
37647;SDS011;23490;53.656;10.076;2023-06-19T09:42:39;8.82;;;6.93;;
37647;SDS011;23490;53.656;10.076;2023-06-19T09:45:06;9.93;;;7.13;;
37647;SDS011;23490;53.656;10.076;2023-06-19T09:50:01;8.32;;;7.07;;
37647;SDS011;23490;53.656;10.076;2023-06-19T09:52:28;8.65;;;6.50;;
37647;SDS011;23490;53.656;10.076;2023-06-19T09:54:54;9.15;;;6.50;;
37647;SDS011;23490;53.656;10.076;2023-06-19T09:57:20;7.72;;;6.20;;
37647;SDS011;23490;53.656;10.076;2023-06-19T09:59:47;9.48;;;6.75;;
37647;SDS011;23490;53.656;10.076;2023-06-19T10:02:16;12.65;;;7.25;;
37647;SDS011;23490;53.656;10.076;2023-06-19T10:04:43;10.32;;;6.22;;
37647;SDS011;23490;53.656;10.076;2023-06-19T10:07:20;6.82;;;5.63;;
37647;SDS011;23490;53.656;10.076;2023-06-19T10:09:58;8.25;;;5.80;;
37647;SDS011;23490;53.656;10.076;2023-06-19T10:12:37;8.80;;;6.25;;
37647;SDS011;23490;53.656;10.076;2023-06-19T10:17:41;8.30;;;6.38;;
37647;SDS011;23490;53.656;10.076;2023-06-19T10:22:51;7.60;;;5.88;;
37647;SDS011;23490;53.656;10.076;2023-06-19T10:25:29;7.90;;;5.88;;
37647;SDS011;23490;53.656;10.076;2023-06-19T10:27:57;9.40;;;6.85;;
37647;SDS011;23490;53.656;10.076;2023-06-19T10:30:23;8.55;;;6.38;;
37647;SDS011;23490;53.656;10.076;2023-06-19T10:32:49;9.07;;;6.75;;
37647;SDS011;23490;53.656;10.076;2023-06-19T10:35:15;9.75;;;6.55;;
37647;SDS011;23490;53.656;10.076;2023-06-19T10:37:42;7.82;;;6.20;;
37647;SDS011;23490;53.656;10.076;2023-06-19T10:40:09;7.22;;;6.30;;
37647;SDS011;23490;53.656;10.076;2023-06-19T10:42:42;10.50;;;7.00;;
37647;SDS011;23490;53.656;10.076;2023-06-19T10:45:09;8.38;;;6.38;;
37647;SDS011;23490;53.656;10.076;2023-06-19T10:47:40;9.02;;;6.38;;
37647;SDS011;23490;53.656;10.076;2023-06-19T10:50:09;8.48;;;6.72;;
37647;SDS011;23490;53.656;10.076;2023-06-19T10:52:41;8.65;;;6.38;;
37647;SDS011;23490;53.656;10.076;2023-06-19T10:55:08;10.68;;;7.75;;
37647;SDS011;23490;53.656;10.076;2023-06-19T10:57:33;8.35;;;7.35;;
37647;SDS011;23490;53.656;10.076;2023-06-19T10:59:59;8.27;;;7.20;;
37647;SDS011;23490;53.656;10.076;2023-06-19T11:02:24;10.18;;;7.00;;
37647;SDS011;23490;53.656;10.076;2023-06-19T11:04:56;8.10;;;7.22;;
37647;SDS011;23490;53.656;10.076;2023-06-19T11:07:22;10.43;;;6.60;;
37647;SDS011;23490;53.656;10.076;2023-06-19T11:09:48;7.50;;;6.45;;
37647;SDS011;23490;53.656;10.076;2023-06-19T11:12:21;9.02;;;6.32;;
37647;SDS011;23490;53.656;10.076;2023-06-19T11:14:47;9.32;;;6.88;;
37647;SDS011;23490;53.656;10.076;2023-06-19T11:17:13;9.57;;;7.15;;
37647;SDS011;23490;53.656;10.076;2023-06-19T11:19:39;8.23;;;6.93;;
37647;SDS011;23490;53.656;10.076;2023-06-19T11:22:07;9.45;;;7.18;;
37647;SDS011;23490;53.656;10.076;2023-06-19T11:24:32;8.45;;;6.95;;
37647;SDS011;23490;53.656;10.076;2023-06-19T11:26:58;9.93;;;7.55;;
37647;SDS011;23490;53.656;10.076;2023-06-19T11:29:29;10.07;;;7.18;;
37647;SDS011;23490;53.656;10.076;2023-06-19T11:32:08;9.27;;;7.35;;
37647;SDS011;23490;53.656;10.076;2023-06-19T11:34:36;8.82;;;6.45;;
37647;SDS011;23490;53.656;10.076;2023-06-19T11:37:11;8.35;;;6.82;;
37647;SDS011;23490;53.656;10.076;2023-06-19T11:42:08;9.60;;;7.10;;
37647;SDS011;23490;53.656;10.076;2023-06-19T11:44:33;8.35;;;6.95;;
37647;SDS011;23490;53.656;10.076;2023-06-19T11:46:59;9.60;;;7.10;;
37647;SDS011;23490;53.656;10.076;2023-06-19T11:49:25;8.60;;;7.57;;
37647;SDS011;23490;53.656;10.076;2023-06-19T11:51:50;11.35;;;6.50;;
37647;SDS011;23490;53.656;10.076;2023-06-19T11:54:16;7.80;;;6.38;;
37647;SDS011;23490;53.656;10.076;2023-06-19T11:56:43;11.27;;;6.32;;
37647;SDS011;23490;53.656;10.076;2023-06-19T11:59:09;9.07;;;7.25;;
37647;SDS011;23490;53.656;10.076;2023-06-19T12:01:36;8.95;;;7.10;;
37647;SDS011;23490;53.656;10.076;2023-06-19T12:04:02;9.93;;;6.47;;
37647;SDS011;23490;53.656;10.076;2023-06-19T12:06:29;8.02;;;6.25;;
37647;SDS011;23490;53.656;10.076;2023-06-19T12:08:55;7.57;;;5.80;;
37647;SDS011;23490;53.656;10.076;2023-06-19T12:11:20;8.20;;;6.18;;
37647;SDS011;23490;53.656;10.076;2023-06-19T12:13:46;8.15;;;5.53;;
37647;SDS011;23490;53.656;10.076;2023-06-19T12:16:11;9.52;;;5.63;;
37647;SDS011;23490;53.656;10.076;2023-06-19T12:18:37;7.75;;;5.00;;
37647;SDS011;23490;53.656;10.076;2023-06-19T12:21:03;5.90;;;5.20;;
37647;SDS011;23490;53.656;10.076;2023-06-19T12:23:29;7.10;;;4.72;;
37647;SDS011;23490;53.656;10.076;2023-06-19T12:25:54;6.85;;;5.13;;
37647;SDS011;23490;53.656;10.076;2023-06-19T12:28:20;6.05;;;5.00;;
37647;SDS011;23490;53.656;10.076;2023-06-19T12:30:46;6.63;;;5.00;;
37647;SDS011;23490;53.656;10.076;2023-06-19T12:33:17;6.05;;;4.80;;
37647;SDS011;23490;53.656;10.076;2023-06-19T12:35:43;5.78;;;4.97;;
37647;SDS011;23490;53.656;10.076;2023-06-19T12:38:08;7.15;;;4.78;;
37647;SDS011;23490;53.656;10.076;2023-06-19T12:40:35;7.03;;;4.75;;
37647;SDS011;23490;53.656;10.076;2023-06-19T12:43:01;6.75;;;5.53;;
37647;SDS011;23490;53.656;10.076;2023-06-19T12:45:27;7.30;;;4.97;;
37647;SDS011;23490;53.656;10.076;2023-06-19T12:47:53;8.20;;;5.07;;
37647;SDS011;23490;53.656;10.076;2023-06-19T12:50:18;6.25;;;4.75;;
37647;SDS011;23490;53.656;10.076;2023-06-19T12:52:43;5.18;;;4.00;;
37647;SDS011;23490;53.656;10.076;2023-06-19T12:55:09;9.05;;;5.00;;
37647;SDS011;23490;53.656;10.076;2023-06-19T12:57:34;7.47;;;4.75;;
37647;SDS011;23490;53.656;10.076;2023-06-19T12:59:59;6.07;;;4.78;;
37647;SDS011;23490;53.656;10.076;2023-06-19T13:02:25;6.25;;;4.63;;
37647;SDS011;23490;53.656;10.076;2023-06-19T13:04:51;10.35;;;5.35;;
37647;SDS011;23490;53.656;10.076;2023-06-19T13:07:17;10.90;;;5.30;;
37647;SDS011;23490;53.656;10.076;2023-06-19T13:09:42;9.32;;;4.90;;
37647;SDS011;23490;53.656;10.076;2023-06-19T13:12:07;7.43;;;4.70;;
37647;SDS011;23490;53.656;10.076;2023-06-19T13:14:33;10.65;;;4.75;;
37647;SDS011;23490;53.656;10.076;2023-06-19T13:16:59;7.55;;;4.50;;
37647;SDS011;23490;53.656;10.076;2023-06-19T13:19:24;5.72;;;4.30;;
37647;SDS011;23490;53.656;10.076;2023-06-19T13:21:50;11.15;;;4.28;;
37647;SDS011;23490;53.656;10.076;2023-06-19T13:24:16;7.22;;;4.13;;
37647;SDS011;23490;53.656;10.076;2023-06-19T13:26:42;7.88;;;4.38;;
37647;SDS011;23490;53.656;10.076;2023-06-19T13:29:08;7.43;;;4.47;;
37647;SDS011;23490;53.656;10.076;2023-06-19T13:31:34;7.85;;;4.68;;
37647;SDS011;23490;53.656;10.076;2023-06-19T13:33:59;6.85;;;4.43;;
37647;SDS011;23490;53.656;10.076;2023-06-19T13:36:24;8.40;;;5.10;;
37647;SDS011;23490;53.656;10.076;2023-06-19T13:38:51;6.13;;;4.65;;
37647;SDS011;23490;53.656;10.076;2023-06-19T13:41:17;6.13;;;4.45;;
37647;SDS011;23490;53.656;10.076;2023-06-19T13:43:43;6.93;;;4.78;;
37647;SDS011;23490;53.656;10.076;2023-06-19T13:46:10;7.68;;;4.65;;
37647;SDS011;23490;53.656;10.076;2023-06-19T13:48:36;8.75;;;4.20;;
37647;SDS011;23490;53.656;10.076;2023-06-19T13:51:01;9.77;;;4.82;;
37647;SDS011;23490;53.656;10.076;2023-06-19T13:53:27;7.07;;;3.78;;
37647;SDS011;23490;53.656;10.076;2023-06-19T13:55:53;7.40;;;4.45;;
37647;SDS011;23490;53.656;10.076;2023-06-19T13:58:19;6.97;;;3.65;;
37647;SDS011;23490;53.656;10.076;2023-06-19T14:00:44;6.78;;;4.05;;
37647;SDS011;23490;53.656;10.076;2023-06-19T14:03:09;7.45;;;4.38;;
37647;SDS011;23490;53.656;10.076;2023-06-19T14:05:35;5.75;;;3.78;;
37647;SDS011;23490;53.656;10.076;2023-06-19T14:08:01;6.22;;;3.70;;
37647;SDS011;23490;53.656;10.076;2023-06-19T14:10:28;7.35;;;4.63;;
37647;SDS011;23490;53.656;10.076;2023-06-19T14:12:53;5.35;;;3.75;;
37647;SDS011;23490;53.656;10.076;2023-06-19T14:15:18;5.95;;;3.63;;
37647;SDS011;23490;53.656;10.076;2023-06-19T14:17:45;8.20;;;4.00;;
37647;SDS011;23490;53.656;10.076;2023-06-19T14:20:10;5.95;;;3.15;;
37647;SDS011;23490;53.656;10.076;2023-06-19T14:22:36;6.55;;;3.35;;
37647;SDS011;23490;53.656;10.076;2023-06-19T14:25:02;6.80;;;3.13;;
37647;SDS011;23490;53.656;10.076;2023-06-19T14:27:28;6.05;;;3.72;;
37647;SDS011;23490;53.656;10.076;2023-06-19T14:29:54;4.93;;;3.70;;
37647;SDS011;23490;53.656;10.076;2023-06-19T14:32:20;4.50;;;3.50;;
37647;SDS011;23490;53.656;10.076;2023-06-19T14:34:45;5.50;;;3.30;;
37647;SDS011;23490;53.656;10.076;2023-06-19T14:37:11;6.95;;;3.72;;
37647;SDS011;23490;53.656;10.076;2023-06-19T14:39:36;6.43;;;3.85;;
37647;SDS011;23490;53.656;10.076;2023-06-19T14:42:02;5.00;;;3.70;;